Time;durP1;ratioP1;P1;durP2;ratioP2;P2;SDS_P1;SDS_P2;PMS_P1;PMS_P2;Temp;Humidity;BMP_temperature;BMP_pressure;BME280_temperature;BME280_humidity;BME280_pressure;Samples;Min_cycle;Max_cycle;Signal;HPM_P1;HPM_P2
2022/11/10 00:01:54;;;;;;;12.55;3.70;;;;;;;7.72;100.00;101704.16;5051496;28;20021;-78
2022/11/10 00:04:19;;;;;;;18.55;3.80;;;;;;;7.72;100.00;101713.69;5055333;28;20473;-78
2022/11/10 00:06:48;;;;;;;17.05;4.45;;;;;;;7.73;100.00;101720.59;5055191;28;20398;-78
2022/11/10 00:09:14;;;;;;;22.08;4.38;;;;;;;7.69;100.00;101719.72;5069380;28;20060;-78
2022/11/10 00:11:40;;;;;;;18.58;4.10;;;;;;;7.71;100.00;101720.56;5051509;28;20085;-79
2022/11/10 00:17:03;;;;;;;15.23;4.07;;;;;;;7.68;100.00;101711.91;5067806;28;20049;-78
2022/11/10 00:19:32;;;;;;;13.43;3.67;;;;;;;7.66;100.00;101718.84;5049929;28;20025;-78
2022/11/10 00:21:59;;;;;;;18.08;4.78;;;;;;;7.67;100.00;101718.84;5070708;28;20034;-78
2022/11/10 00:24:25;;;;;;;13.82;3.72;;;;;;;7.65;100.00;101712.81;5057424;28;20507;-78
2022/11/10 00:26:50;;;;;;;14.38;4.22;;;;;;;7.66;100.00;101719.72;5068446;28;20033;-78
2022/11/10 00:29:15;;;;;;;17.48;4.18;;;;;;;7.61;100.00;101713.63;5060936;28;20033;-78
2022/11/10 00:31:41;;;;;;;16.27;3.70;;;;;;;7.63;100.00;101719.69;5067665;28;20099;-78
2022/11/10 00:34:10;;;;;;;13.80;4.88;;;;;;;7.62;100.00;101725.75;5063485;28;20476;-78
2022/11/10 00:36:36;;;;;;;17.20;4.10;;;;;;;7.63;100.00;101737.00;5055402;28;20041;-78
2022/11/10 00:39:01;;;;;;;18.15;4.38;;;;;;;7.62;100.00;101741.34;5061938;28;20468;-78
2022/11/10 00:41:26;;;;;;;18.98;4.20;;;;;;;7.63;100.00;101749.97;5058831;28;20068;-78
2022/11/10 00:43:52;;;;;;;21.77;4.60;;;;;;;7.60;100.00;101750.84;5060099;28;20020;-78
2022/11/10 00:46:17;;;;;;;14.35;4.03;;;;;;;7.52;100.00;101736.97;5064341;28;20036;-78
2022/11/10 00:48:43;;;;;;;17.02;3.97;;;;;;;7.56;100.00;101743.91;5063999;28;20583;-78
2022/11/10 00:51:19;;;;;;;18.17;4.43;;;;;;;7.57;100.00;101749.97;5050421;28;20025;-78
2022/11/10 00:53:44;;;;;;;17.95;4.82;;;;;;;7.50;100.00;101741.28;5052651;28;20083;-78
2022/11/10 00:56:09;;;;;;;17.27;3.90;;;;;;;7.49;100.00;101752.53;5058857;28;20688;-78
2022/11/10 00:58:35;;;;;;;13.40;3.88;;;;;;;7.50;100.00;101751.66;5058106;28;20037;-78
2022/11/10 01:01:02;;;;;;;20.00;4.88;;;;;;;7.51;100.00;101749.06;5049169;28;20033;-78
2022/11/10 01:03:27;;;;;;;17.90;4.07;;;;;;;7.49;100.00;101748.22;5058089;28;20044;-78
2022/11/10 01:05:52;;;;;;;13.68;4.05;;;;;;;7.48;100.00;101750.78;5065423;28;20033;-78
2022/11/10 01:08:18;;;;;;;17.63;4.90;;;;;;;7.45;100.00;101745.56;5051332;28;20041;-78
2022/11/10 01:10:43;;;;;;;14.85;4.07;;;;;;;7.49;100.00;101750.81;5054523;28;20108;-78
2022/11/10 01:13:08;;;;;;;16.60;3.85;;;;;;;7.46;100.00;101757.72;5065572;28;20044;-78
2022/11/10 01:15:38;;;;;;;14.73;4.10;;;;;;;7.41;100.00;101741.25;5059600;28;20395;-78
2022/11/10 01:18:03;;;;;;;18.58;4.43;;;;;;;7.44;100.00;101752.50;5069043;28;20034;-78
2022/11/10 01:20:28;;;;;;;18.92;4.82;;;;;;;7.39;100.00;101749.03;5062660;28;20029;-78
2022/11/10 01:22:54;;;;;;;15.27;4.28;;;;;;;7.44;100.00;101762.03;5071059;28;20067;-78
2022/11/10 01:25:19;;;;;;;22.20;4.38;;;;;;;7.45;100.00;101771.53;5052681;28;20463;-78
2022/11/10 01:27:44;;;;;;;16.48;3.92;;;;;;;7.37;100.00;101774.09;5064718;28;20043;-78
2022/11/10 01:30:10;;;;;;;19.42;4.00;;;;;;;7.43;100.00;101791.44;5057945;28;20051;-78
2022/11/10 01:32:35;;;;;;;22.13;4.45;;;;;;;7.43;100.00;101799.22;5064045;28;20041;-78
2022/11/10 01:35:01;;;;;;;21.08;5.18;;;;;;;7.43;100.00;101794.03;5053861;28;20109;-78
2022/11/10 01:37:26;;;;;;;16.67;3.95;;;;;;;7.42;100.00;101793.16;5061469;28;20043;-78
2022/11/10 01:39:51;;;;;;;18.48;3.90;;;;;;;7.37;100.00;101784.47;5055046;28;20021;-78
2022/11/10 01:42:27;;;;;;;12.80;4.13;;;;;;;7.39;100.00;101798.31;5055421;28;20027;-78
2022/11/10 01:45:23;;;;;;;15.98;3.90;;;;;;;7.40;100.00;101802.66;5060522;28;20025;-78
2022/11/10 01:47:55;;;;;;;18.13;4.18;;;;;;;7.41;100.00;101796.59;5065869;28;20116;-78
2022/11/10 01:50:24;;;;;;;16.45;3.85;;;;;;;7.42;100.00;101803.53;5051561;28;20096;-78
2022/11/10 01:52:53;;;;;;;18.90;4.50;;;;;;;7.43;100.00;101807.84;5057106;28;20024;-78
2022/11/10 01:55:19;;;;;;;20.73;4.68;;;;;;;7.36;100.00;101793.13;5061816;28;20115;-78
2022/11/10 01:57:44;;;;;;;13.80;4.00;;;;;;;7.36;100.00;101781.88;5069447;28;20034;-78
2022/11/10 02:00:10;;;;;;;19.98;4.75;;;;;;;7.38;100.00;101787.94;5054240;28;20032;-78
2022/11/10 02:03:06;;;;;;;18.27;4.25;;;;;;;7.34;100.00;101778.41;5057967;28;20029;-78
2022/11/10 02:05:32;;;;;;;15.88;4.00;;;;;;;7.42;100.00;101792.25;5049246;28;20064;-78
2022/11/10 02:07:59;;;;;;;18.13;3.88;;;;;;;7.38;100.00;101785.34;5070371;28;20059;-78
2022/11/10 02:10:24;;;;;;;15.35;4.18;;;;;;;7.37;100.00;101794.84;5052135;28;20365;-78
2022/11/10 02:12:50;;;;;;;21.58;4.43;;;;;;;7.37;100.00;101797.44;5048045;28;20047;-78
2022/11/10 02:15:17;;;;;;;15.38;4.22;;;;;;;7.40;100.00;101794.88;5059057;28;20037;-78
2022/11/10 02:17:46;;;;;;;18.02;3.85;;;;;;;7.43;100.00;101794.03;5054535;28;20033;-78
2022/11/10 02:20:13;;;;;;;17.45;4.10;;;;;;;7.40;100.00;101799.19;5048444;28;20043;-78
2022/11/10 02:22:39;;;;;;;21.42;4.30;;;;;;;7.43;100.00;101804.41;5050890;28;20032;-78
2022/11/10 02:25:05;;;;;;;18.45;3.72;;;;;;;7.39;100.00;101798.31;5047336;28;20033;-78
2022/11/10 02:27:31;;;;;;;18.88;3.90;;;;;;;7.46;100.00;101817.38;5065847;28;20145;-78
2022/11/10 02:29:57;;;;;;;21.38;4.63;;;;;;;7.45;100.00;101818.22;5067807;28;20542;-78
2022/11/10 02:32:22;;;;;;;18.05;4.35;;;;;;;7.43;100.00;101814.78;5047051;28;20028;-78
2022/11/10 02:34:48;;;;;;;17.20;4.03;;;;;;;7.43;100.00;101819.97;5044487;28;20033;-78
2022/11/10 02:37:13;;;;;;;14.90;3.72;;;;;;;7.35;100.00;101821.63;5052371;28;20036;-78
2022/11/10 02:39:39;;;;;;;18.95;3.80;;;;;;;7.35;100.00;101838.06;5054759;28;20535;-78
2022/11/10 02:42:09;;;;;;;15.35;3.13;;;;;;;7.27;100.00;101830.25;5061923;28;20083;-78
2022/11/10 02:44:35;;;;;;;20.70;4.30;;;;;;;7.25;100.00;101838.88;5048737;28;20021;-78
2022/11/10 02:47:00;;;;;;;17.65;3.78;;;;;;;7.31;100.00;101858.78;5057951;28;20064;-78
2022/11/10 02:49:25;;;;;;;14.27;3.42;;;;;;;7.17;100.00;101845.75;5066916;28;20480;-78
2022/11/10 02:51:51;;;;;;;17.10;3.35;;;;;;;7.23;100.00;101864.81;5056056;28;20033;-78
2022/11/10 02:54:16;;;;;;;18.27;3.97;;;;;;;7.13;100.00;101851.75;5052053;28;20024;-78
2022/11/10 02:56:41;;;;;;;18.17;3.60;;;;;;;7.16;100.00;101863.03;5056327;28;20468;-78
2022/11/10 02:59:06;;;;;;;14.18;3.95;;;;;;;7.19;100.00;101851.78;5052042;28;20169;-78
2022/11/10 03:01:32;;;;;;;21.67;3.88;;;;;;;7.19;100.00;101851.78;5065171;28;20017;-78
2022/11/10 03:03:57;;;;;;;17.65;3.80;;;;;;;7.15;100.00;101845.72;5069749;28;20427;-78
2022/11/10 03:06:22;;;;;;;19.38;3.83;;;;;;;7.11;100.00;101853.47;5057859;28;20029;-78
2022/11/10 03:08:47;;;;;;;20.48;4.72;;;;;;;7.03;100.00;101853.44;5058898;28;20032;-78
2022/11/10 03:11:13;;;;;;;20.90;4.00;;;;;;;7.05;100.00;101862.06;5050115;28;20033;-78
2022/11/10 03:13:38;;;;;;;17.77;3.55;;;;;;;7.02;100.00;101868.09;5060239;28;20061;-78
2022/11/10 03:16:04;;;;;;;15.38;4.20;;;;;;;7.01;100.00;101878.47;5061400;28;20036;-78
2022/11/10 03:18:29;;;;;;;21.95;4.25;;;;;;;6.99;100.00;101869.81;5064868;28;20017;-78
2022/11/10 03:20:54;;;;;;;19.25;3.55;;;;;;;6.99;100.00;101885.38;5047386;28;20025;-78
2022/11/10 03:23:19;;;;;;;20.70;4.45;;;;;;;6.98;100.00;101873.25;5035222;28;20029;-78
2022/11/10 03:25:45;;;;;;;19.52;3.75;;;;;;;7.01;100.00;101878.47;5046687;28;20059;-78
2022/11/10 03:28:11;;;;;;;20.05;4.45;;;;;;;6.98;100.00;101886.22;5047561;28;20076;-78
2022/11/10 03:30:36;;;;;;;19.17;4.10;;;;;;;6.98;100.00;101888.81;5060461;28;20028;-78
2022/11/10 03:33:01;;;;;;;18.55;4.15;;;;;;;6.94;100.00;101889.66;5034970;28;20468;-78
2022/11/10 03:35:27;;;;;;;19.77;3.90;;;;;;;6.92;100.00;101891.34;5048708;28;20083;-78
2022/11/10 03:37:52;;;;;;;18.45;4.05;;;;;;;6.89;100.00;101899.97;5043804;28;20049;-78
2022/11/10 03:40:18;;;;;;;20.95;4.47;;;;;;;6.86;100.00;101907.72;5058256;28;20025;-78
2022/11/10 03:42:44;;;;;;;23.63;4.05;;;;;;;6.80;100.00;101898.19;5061695;28;20122;-78
2022/11/10 03:45:11;;;;;;;20.55;4.57;;;;;;;6.84;100.00;101919.81;5057893;28;20024;-78
2022/11/10 03:47:37;;;;;;;21.20;3.95;;;;;;;6.82;100.00;101913.75;5070501;28;20126;-78
2022/11/10 03:50:02;;;;;;;16.60;4.53;;;;;;;6.78;100.00;101920.63;5049890;28;20465;-78
2022/11/10 03:52:28;;;;;;;20.20;4.03;;;;;;;6.75;100.00;101922.31;5052026;28;20060;-78
2022/11/10 03:54:53;;;;;;;15.95;3.75;;;;;;;6.74;100.00;101925.78;5048070;28;20037;-78
2022/11/10 03:57:18;;;;;;;14.43;4.68;;;;;;;6.72;100.00;101930.06;5042817;28;20396;-78
2022/11/10 03:59:43;;;;;;;15.10;3.97;;;;;;;6.68;100.00;101931.75;5054388;28;20025;-78
2022/11/10 04:02:09;;;;;;;18.67;4.63;;;;;;;6.69;100.00;101933.47;5052562;28;20025;-78
2022/11/10 04:10:02;;;;;;;18.25;4.00;;;;;;;6.69;100.00;101940.41;5051714;28;20011;-78
2022/11/10 04:18:19;;;;;;;18.63;3.95;;;;;;;6.64;100.00;101947.25;5051692;28;20090;-78
2022/11/10 04:20:44;;;;;;;16.48;4.32;;;;;;;6.65;100.00;101936.91;5039670;28;20087;-78
2022/11/10 04:23:29;;;;;;;19.90;4.50;;;;;;;6.64;100.00;101950.72;5050741;28;20024;-78
2022/11/10 04:28:52;;;;;;;20.38;4.78;;;;;;;6.69;100.00;101974.94;5050976;28;20040;-78
2022/11/10 04:31:20;;;;;;;21.60;4.20;;;;;;;6.67;100.00;101970.59;5051847;28;20033;-78
2022/11/10 04:33:46;;;;;;;21.88;4.47;;;;;;;6.66;100.00;101974.91;5050361;28;20029;-78
2022/11/10 04:36:14;;;;;;;24.27;4.15;;;;;;;6.67;100.00;101975.78;5052311;28;20037;-78
2022/11/10 04:38:40;;;;;;;20.67;4.50;;;;;;;6.56;100.00;101968.75;5051233;28;20028;-78
2022/11/10 04:41:06;;;;;;;15.05;4.30;;;;;;;6.66;100.00;101989.59;5060342;28;20033;-78
2022/11/10 04:43:31;;;;;;;19.13;4.13;;;;;;;6.65;100.00;101991.31;5050102;28;20033;-78
2022/11/10 04:45:57;;;;;;;16.98;4.28;;;;;;;6.64;100.00;101988.69;5053897;28;20486;-78
2022/11/10 04:48:23;;;;;;;19.52;4.43;;;;;;;6.64;100.00;101996.47;5053350;28;20033;-78
2022/11/10 04:50:49;;;;;;;14.80;4.38;;;;;;;6.63;100.00;101997.34;5060526;28;20021;-78
2022/11/10 04:53:15;;;;;;;21.40;4.85;;;;;;;6.66;100.00;102007.75;5037989;28;20013;-78
2022/11/10 04:55:42;;;;;;;15.63;4.25;;;;;;;6.58;100.00;101989.53;5049250;28;20465;-78
2022/11/10 04:58:08;;;;;;;22.48;4.35;;;;;;;6.66;100.00;102007.75;5052084;28;20095;-78
2022/11/10 05:00:34;;;;;;;20.23;4.45;;;;;;;6.65;100.00;102013.78;5050641;28;20457;-78
2022/11/10 05:03:01;;;;;;;16.55;4.07;;;;;;;6.61;100.00;102014.59;5050283;28;20140;-78
2022/11/10 05:05:26;;;;;;;19.30;4.25;;;;;;;6.63;100.00;102016.34;5051148;28;20164;-78
2022/11/10 05:07:51;;;;;;;22.08;5.15;;;;;;;6.61;100.00;102007.69;5064465;28;20499;-78
2022/11/10 05:10:17;;;;;;;22.05;4.28;;;;;;;6.66;100.00;102025.88;5050913;28;20047;-78
2022/11/10 05:12:42;;;;;;;19.25;4.80;;;;;;;6.62;100.00;102024.97;5050630;28;20033;-78
2022/11/10 05:15:08;;;;;;;19.67;4.57;;;;;;;6.63;100.00;102043.97;5049362;28;20438;-78
2022/11/10 05:17:34;;;;;;;25.23;4.95;;;;;;;6.58;100.00;102033.56;5040310;28;20029;-78
2022/11/10 05:19:59;;;;;;;14.63;4.10;;;;;;;6.55;100.00;102043.91;5047301;28;20052;-78
2022/11/10 05:22:24;;;;;;;23.42;4.72;;;;;;;6.52;100.00;102044.72;5048898;28;20036;-78
2022/11/10 05:24:50;;;;;;;20.48;3.80;;;;;;;6.49;100.00;102041.22;5049126;28;20036;-78
2022/11/10 05:27:15;;;;;;;22.88;4.55;;;;;;;6.48;100.00;102034.31;5049635;28;20025;-78
2022/11/10 05:29:40;;;;;;;18.50;3.95;;;;;;;6.39;100.00;102037.66;5046174;28;20104;-78
2022/11/10 05:32:05;;;;;;;26.02;4.50;;;;;;;6.40;100.00;102038.50;5051221;28;20079;-78
2022/11/10 05:34:31;;;;;;;19.35;4.40;;;;;;;6.44;100.00;102040.28;5049281;28;20109;-78
2022/11/10 05:36:56;;;;;;;21.63;4.03;;;;;;;6.41;100.00;102035.06;5050328;28;20033;-78
2022/11/10 05:39:21;;;;;;;21.67;4.55;;;;;;;6.36;100.00;102027.25;5048114;28;20094;-78
2022/11/10 05:41:46;;;;;;;16.80;4.22;;;;;;;6.29;100.00;102015.06;5056643;28;20475;-78
2022/11/10 05:44:12;;;;;;;22.02;5.28;;;;;;;6.37;100.00;102026.38;5056727;28;20021;-78
2022/11/10 05:46:37;;;;;;;16.30;4.43;;;;;;;6.35;100.00;102029.81;5060350;28;20040;-78
2022/11/10 05:49:02;;;;;;;24.20;4.93;;;;;;;6.35;100.00;102032.41;5037137;28;20076;-78
2022/11/10 05:51:28;;;;;;;19.88;4.50;;;;;;;6.31;100.00;102045.31;5056052;28;20035;-78
2022/11/10 05:53:53;;;;;;;19.80;4.07;;;;;;;6.35;100.00;102055.72;5052861;28;20558;-78
2022/11/10 05:56:18;;;;;;;21.42;4.75;;;;;;;6.43;100.00;102061.88;5047213;28;20028;-78
2022/11/10 05:58:43;;;;;;;31.55;5.18;;;;;;;6.39;100.00;102054.91;5050539;28;20040;-78
2022/11/10 06:01:09;;;;;;;14.05;4.25;;;;;;;6.31;100.00;102042.75;5048425;28;20034;-78
2022/11/10 06:03:34;;;;;;;20.55;4.82;;;;;;;6.40;100.00;102056.66;5049110;28;20118;-78
2022/11/10 06:05:59;;;;;;;22.50;5.00;;;;;;;6.38;100.00;102059.22;5047651;28;20048;-78
2022/11/10 06:08:25;;;;;;;28.70;5.85;;;;;;;6.38;100.00;102069.59;5048505;28;20044;-78
2022/11/10 06:10:51;;;;;;;18.35;4.63;;;;;;;6.35;100.00;102066.97;5051940;28;20025;-78
2022/11/10 06:13:16;;;;;;;24.75;4.93;;;;;;;6.38;100.00;102076.50;5036209;28;20053;-78
2022/11/10 06:15:41;;;;;;;20.83;5.07;;;;;;;6.30;100.00;102066.00;5050831;28;20070;-78
2022/11/10 06:18:06;;;;;;;28.25;5.90;;;;;;;6.36;100.00;102084.22;5046556;28;20032;-78
2022/11/10 06:20:32;;;;;;;22.85;4.80;;;;;;;6.34;100.00;102091.09;5045545;28;20063;-78
2022/11/10 06:23:06;;;;;;;21.65;4.10;;;;;;;6.30;100.00;102094.50;5048423;28;20037;-78
2022/11/10 06:25:34;;;;;;;21.83;4.63;;;;;;;6.24;100.00;102084.03;5037305;28;20036;-78
2022/11/10 06:28:00;;;;;;;23.23;4.88;;;;;;;6.27;100.00;102089.28;5048213;28;20064;-78
2022/11/10 06:30:27;;;;;;;21.63;4.55;;;;;;;6.31;100.00;102089.34;5037680;28;20065;-78
2022/11/10 06:32:53;;;;;;;21.67;4.25;;;;;;;6.27;100.00;102092.72;5055013;28;20031;-78
2022/11/10 06:35:19;;;;;;;26.70;4.65;;;;;;;6.30;100.00;102094.50;5069445;28;21291;-78
2022/11/10 06:37:45;;;;;;;23.88;4.80;;;;;;;6.33;100.00;102104.91;5036139;28;20021;-78
2022/11/10 06:40:12;;;;;;;20.30;4.60;;;;;;;6.33;100.00;102113.53;5048423;28;20044;-78
2022/11/10 06:42:38;;;;;;;19.13;4.05;;;;;;;6.33;100.00;102113.53;5048958;28;20033;-78
2022/11/10 06:45:04;;;;;;;25.08;5.03;;;;;;;6.33;100.00;102126.50;5049570;28;20048;-78
2022/11/10 06:47:30;;;;;;;17.55;4.20;;;;;;;6.32;100.00;102124.75;5065929;28;20127;-77
2022/11/10 06:49:55;;;;;;;30.60;4.70;;;;;;;6.33;100.00;102135.97;5048530;28;20021;-78
2022/11/10 06:52:21;;;;;;;27.67;5.15;;;;;;;6.24;100.00;102115.13;5047744;28;20098;-78
2022/11/10 06:54:46;;;;;;;20.83;4.60;;;;;;;6.35;100.00;102141.19;5048279;28;20472;-78
2022/11/10 06:57:11;;;;;;;25.33;5.25;;;;;;;6.38;100.00;102143.84;5055846;28;20061;-78
2022/11/10 06:59:37;;;;;;;26.95;5.15;;;;;;;6.31;100.00;102138.56;5055665;28;20121;-78
2022/11/10 07:02:02;;;;;;;24.50;5.22;;;;;;;6.27;100.00;102134.16;5040576;28;20031;-79
2022/11/10 07:04:27;;;;;;;21.95;4.63;;;;;;;6.38;100.00;102151.63;5060366;28;20024;-78
2022/11/10 07:06:53;;;;;;;25.10;6.30;;;;;;;6.38;100.00;102147.31;5061453;28;20021;-78
2022/11/10 07:09:18;;;;;;;25.85;5.70;;;;;;;6.37;100.00;102139.47;5048299;28;20083;-79
2022/11/10 07:11:43;;;;;;;17.95;5.03;;;;;;;6.41;100.00;102155.13;5047981;28;20045;-78
2022/11/10 07:14:09;;;;;;;23.58;4.95;;;;;;;6.46;100.00;102148.25;5060199;28;20063;-78
2022/11/10 07:16:35;;;;;;;20.65;4.57;;;;;;;6.51;100.00;102167.34;5055986;28;20468;-78
2022/11/10 07:19:00;;;;;;;19.63;4.88;;;;;;;6.51;100.00;102163.91;5048185;28;20044;-78
2022/11/10 07:21:25;;;;;;;27.20;4.68;;;;;;;6.61;100.00;102183.03;5051473;28;20028;-78
2022/11/10 07:23:50;;;;;;;22.48;4.88;;;;;;;6.53;100.00;102159.59;5060121;28;20060;-78
2022/11/10 07:26:16;;;;;;;23.02;5.05;;;;;;;6.68;100.00;102185.72;5053175;28;20040;-78
2022/11/10 07:28:41;;;;;;;26.42;5.38;;;;;;;6.67;100.00;102189.19;5067278;28;20036;-78
2022/11/10 07:31:07;;;;;;;26.20;5.25;;;;;;;6.69;100.00;102189.19;5052835;28;20330;-78
2022/11/10 07:33:32;;;;;;;25.52;4.90;;;;;;;6.63;100.00;102200.31;5052316;28;20124;-78
2022/11/10 07:36:02;;;;;;;21.05;4.88;;;;;;;6.63;100.00;102197.72;5052287;28;20025;-78
2022/11/10 07:38:27;;;;;;;22.60;5.15;;;;;;;6.65;100.00;102184.81;5051746;28;20522;-78
2022/11/10 07:40:53;;;;;;;25.45;5.22;;;;;;;6.68;100.00;102195.22;5067892;28;20016;-78
2022/11/10 07:43:19;;;;;;;23.95;5.07;;;;;;;6.78;100.00;102205.72;5049137;28;20043;-78
2022/11/10 07:45:45;;;;;;;27.23;5.32;;;;;;;6.82;100.00;102203.19;5053269;28;20444;-78
2022/11/10 07:48:10;;;;;;;25.27;5.70;;;;;;;6.94;100.00;102213.72;5051717;28;20064;-78
2022/11/10 07:50:36;;;;;;;29.02;5.47;;;;;;;6.93;100.00;102207.69;5052920;28;20115;-78
2022/11/10 07:53:10;;;;;;;31.02;5.20;;;;;;;6.98;100.00;102216.38;5051285;28;20025;-78
2022/11/10 07:55:37;;;;;;;26.23;5.60;;;;;;;7.01;100.00;102215.53;5049883;28;20037;-77
2022/11/10 07:58:03;;;;;;;26.42;5.90;;;;;;;7.05;100.00;102214.72;5046775;28;20065;-77
2022/11/10 08:00:29;;;;;;;24.95;5.22;;;;;;;7.11;100.00;102221.72;5052211;28;20112;-77
2022/11/10 08:03:01;;;;;;;30.85;6.05;;;;;;;7.15;100.00;102228.69;5049686;28;20021;-78
2022/11/10 08:05:26;;;;;;;22.05;4.80;;;;;;;7.20;100.00;102232.22;5050161;28;20025;-78
2022/11/10 08:07:52;;;;;;;25.08;6.00;;;;;;;7.23;100.00;102240.03;5052088;28;20116;-78
2022/11/10 08:10:17;;;;;;;26.40;4.97;;;;;;;7.22;100.00;102233.97;5050573;28;20093;-77
2022/11/10 08:12:42;;;;;;;19.98;5.13;;;;;;;7.30;100.00;102238.41;5052210;28;20232;-78
2022/11/10 08:15:08;;;;;;;25.60;5.75;;;;;;;7.33;100.00;102249.69;5052248;28;20064;-77
2022/11/10 08:17:34;;;;;;;21.30;5.00;;;;;;;7.39;100.00;102262.72;5049229;28;20078;-77
2022/11/10 08:19:59;;;;;;;19.25;4.90;;;;;;;7.42;100.00;102260.19;5049600;28;20555;-77
2022/11/10 08:22:24;;;;;;;24.33;5.38;;;;;;;7.34;100.00;102241.03;5049296;28;20032;-78
2022/11/10 08:24:50;;;;;;;15.68;5.38;;;;;;;7.48;100.00;102260.22;5066004;28;20021;-77
2022/11/10 08:27:15;;;;;;;19.58;4.80;;;;;;;7.51;100.00;102254.22;5051774;28;20563;-77
2022/11/10 08:29:40;;;;;;;25.52;5.72;;;;;;;7.60;100.00;102259.50;5042957;28;20036;-77
2022/11/10 08:32:05;;;;;;;26.30;4.90;;;;;;;7.65;100.00;102278.63;5050980;28;20368;-77
2022/11/10 08:34:31;;;;;;;23.58;4.72;;;;;;;7.64;100.00;102261.28;5049508;28;20067;-78
2022/11/10 08:36:56;;;;;;;17.70;5.10;;;;;;;7.74;100.00;102273.50;5064711;28;20028;-77
2022/11/10 08:39:22;;;;;;;20.75;4.78;;;;;;;7.67;100.00;102258.72;5066584;28;20052;-78
2022/11/10 08:41:47;;;;;;;19.75;4.65;;;;;;;7.76;100.00;102257.09;5063054;28;20413;-78
2022/11/10 08:44:12;;;;;;;23.10;5.05;;;;;;;7.86;100.00;102280.56;5058193;28;20024;-77
2022/11/10 08:46:37;;;;;;;22.92;5.22;;;;;;;7.96;100.00;102268.56;5052416;28;20033;-78
2022/11/10 08:49:03;;;;;;;23.70;5.32;;;;;;;8.07;100.00;102281.63;5050447;28;20464;-77
2022/11/10 08:51:28;;;;;;;24.48;4.45;;;;;;;8.00;100.00;102259.94;5052305;28;20013;-77
2022/11/10 08:53:53;;;;;;;20.55;4.75;;;;;;;8.15;100.00;102282.59;5051647;28;20036;-77
2022/11/10 08:56:19;;;;;;;16.02;5.07;;;;;;;8.20;100.00;102289.56;5065965;28;20564;-77
2022/11/10 08:58:44;;;;;;;16.02;4.93;;;;;;;8.23;100.00;102285.25;5052213;28;20032;-77
2022/11/10 09:01:10;;;;;;;17.85;4.72;;;;;;;8.35;100.00;102293.16;5048425;28;21935;-77
2022/11/10 09:03:36;;;;;;;20.40;5.32;;;;;;;8.43;100.00;102291.53;5049980;28;20027;-77
2022/11/10 09:06:01;;;;;;;17.58;4.45;;;;;;;8.38;100.00;102272.44;5056380;28;20029;-77
2022/11/10 09:08:27;;;;;;;18.60;5.03;;;;;;;8.57;100.00;102300.31;5051194;28;20407;-77
2022/11/10 09:10:52;;;;;;;18.55;4.63;;;;;;;8.58;100.00;102288.19;5051858;28;20383;-78
2022/11/10 09:13:20;;;;;;;24.48;4.70;;;;;;;8.61;100.00;102290.81;5043988;28;20564;-78
2022/11/10 09:15:46;;;;;;;16.45;5.15;;;;;;;8.72;100.00;102306.50;5050130;28;20126;-77
2022/11/10 09:18:12;;;;;;;21.17;5.05;;;;;;;8.80;100.00;102305.69;5047818;28;20491;-76
2022/11/10 09:20:39;;;;;;;21.40;4.57;;;;;;;8.85;100.00;102311.78;5063704;28;20028;-77
2022/11/10 09:23:13;;;;;;;23.83;5.10;;;;;;;8.84;100.00;102298.78;5056124;28;20212;-77
2022/11/10 09:25:39;;;;;;;18.52;4.40;;;;;;;8.93;100.00;102314.47;5051449;28;20468;-77
2022/11/10 09:28:09;;;;;;;19.52;4.22;;;;;;;8.92;100.00;102304.91;5047028;28;20531;-77
2022/11/10 09:30:35;;;;;;;20.58;4.90;;;;;;;8.96;100.00;102304.09;5047140;28;20058;-77
2022/11/10 09:33:00;;;;;;;19.50;4.60;;;;;;;9.01;100.00;102312.75;5051115;28;20104;-77
2022/11/10 09:35:26;;;;;;;25.00;4.38;;;;;;;9.11;100.00;102319.75;5046845;28;20476;-77
2022/11/10 09:37:51;;;;;;;14.48;3.85;;;;;;;9.17;100.00;102311.13;5050056;28;20058;-77
2022/11/10 09:40:21;;;;;;;20.10;4.57;;;;;;;9.20;100.00;102310.28;5049995;28;20480;-77
2022/11/10 09:42:47;;;;;;;16.08;4.00;;;;;;;9.24;100.00;102304.22;5050114;28;20031;-77
2022/11/10 09:45:27;;;;;;;14.60;4.47;;;;;;;9.32;100.00;102315.56;5044718;28;20040;-77
2022/11/10 09:48:13;;;;;;;13.43;4.88;;;;;;;9.37;100.00;102314.72;5050843;28;20029;-77
2022/11/10 09:50:46;;;;;;;16.70;4.22;;;;;;;9.47;100.00;102328.63;5049163;28;20028;-74
2022/11/10 09:53:18;;;;;;;13.50;4.00;;;;;;;9.54;100.00;102334.75;5046804;28;20036;-73
2022/11/10 09:55:56;;;;;;;15.93;3.63;;;;;;;9.57;100.00;102333.03;5050249;28;20032;-76
2022/11/10 09:58:26;;;;;;;22.48;4.43;;;;;;;9.63;100.00;102321.78;5050810;28;20036;-77
2022/11/10 10:01:06;;;;;;;17.67;4.70;;;;;;;9.66;100.00;102318.31;5050582;28;20025;-79
2022/11/10 10:03:33;;;;;;;16.02;4.20;;;;;;;9.73;100.00;102322.69;5050226;28;20033;-81
2022/11/10 10:06:08;;;;;;;19.55;3.90;;;;;;;9.80;100.00;102321.81;5050186;28;20539;-75
2022/11/10 10:08:59;;;;;;;22.15;3.97;;;;;;;9.85;100.00;102330.53;5051006;28;20506;-76
2022/11/10 10:11:34;;;;;;;16.85;3.70;;;;;;;9.92;100.00;102327.09;5063735;28;20024;-76
2022/11/10 10:14:23;;;;;;;14.70;4.60;;;;;;;10.00;100.00;102321.88;5049866;28;20488;-76
2022/11/10 10:16:58;;;;;;;15.20;4.10;;;;;;;10.08;100.00;102328.88;5052705;28;20087;-77
2022/11/10 10:19:42;;;;;;;18.70;3.90;;;;;;;10.18;100.00;102334.09;5050538;28;20029;-76
2022/11/10 10:22:35;;;;;;;15.88;3.63;;;;;;;10.24;100.00;102345.41;5043800;28;20029;-78
2022/11/10 10:25:11;;;;;;;14.88;4.03;;;;;;;10.35;100.00;102347.19;5046399;28;20028;-79
2022/11/10 10:27:39;;;;;;;15.77;3.75;;;;;;;10.45;100.00;102347.19;5052228;28;20545;-75
2022/11/10 10:30:13;;;;;;;17.52;3.78;;;;;;;10.54;100.00;102339.38;5038307;28;20033;-75
2022/11/10 10:32:40;;;;;;;17.55;3.63;;;;;;;10.64;100.00;102350.69;5035470;28;20017;-74
2022/11/10 10:35:05;;;;;;;14.88;3.05;;;;;;;10.67;100.00;102342.00;5050085;28;20021;-75
2022/11/10 10:37:49;;;;;;;16.55;3.38;;;;;;;10.76;100.00;102363.75;5049149;28;20403;-74
2022/11/10 10:40:23;;;;;;;14.10;3.50;;;;;;;10.86;100.00;102376.78;5059298;28;20043;-77
2022/11/10 10:42:48;;;;;;;18.52;3.10;;;;;;;10.94;100.00;102381.13;5044072;28;20032;-77
2022/11/10 10:45:22;;;;;;;13.18;3.40;;;;;;;10.97;100.00;102380.25;5049119;28;20029;-77
2022/11/10 10:47:50;;;;;;;13.32;3.33;;;;;;;10.97;100.00;102386.34;5064362;28;20036;-77
2022/11/10 10:50:31;;;;;;;23.58;3.45;;;;;;;11.01;100.00;102403.72;5048715;28;20136;-77
2022/11/10 10:53:12;;;;;;;9.18;2.70;;;;;;;11.08;100.00;102388.06;5046936;28;20028;-77
2022/11/10 10:55:44;;;;;;;14.77;3.03;;;;;;;11.18;100.00;102389.78;5050518;28;20033;-77
2022/11/10 10:58:25;;;;;;;11.70;2.85;;;;;;;11.30;100.00;102389.78;5056261;28;20082;-83
2022/11/10 11:00:55;;;;;;;10.18;2.65;;;;;;;11.37;100.00;102380.19;5059369;28;20021;-77
2022/11/10 11:03:29;;;;;;;10.13;3.20;;;;;;;11.53;100.00;102394.09;5060796;28;20047;-82
2022/11/10 11:06:26;;;;;;;11.80;3.08;;;;;;;11.66;100.00;102382.72;5057139;28;20468;-81
2022/11/10 11:09:14;;;;;;;13.20;2.38;;;;;;;11.68;100.00;102381.84;5019954;28;20036;-77
2022/11/10 11:11:44;;;;;;;13.45;3.00;;;;;;;11.77;100.00;102377.44;5053609;28;20487;-80
2022/11/10 11:14:17;;;;;;;9.40;2.50;;;;;;;11.75;100.00;102367.03;5052957;28;20053;-79
2022/11/10 11:16:48;;;;;;;10.35;2.88;;;;;;;11.79;100.00;102373.97;5063248;28;20048;-78
2022/11/10 11:19:14;;;;;;;13.98;2.50;;;;;;;11.86;100.00;102374.84;5062730;28;20029;-76
2022/11/10 11:22:10;;;;;;;9.57;2.28;;;;;;;11.99;100.00;102380.88;5053154;28;20017;-82
2022/11/10 11:24:41;;;;;;;8.20;2.10;;;;;;;12.11;100.00;102386.06;5046803;28;20033;-78
2022/11/10 11:27:26;;;;;;;13.07;2.97;;;;;;;12.18;100.00;102382.53;5038662;28;20790;-77
2022/11/10 11:30:16;;;;;;;9.70;2.53;;;;;;;12.27;100.00;102379.00;5043029;28;20033;-81
2022/11/10 11:32:57;;;;;;;15.65;2.55;;;;;;;12.48;97.23;102381.47;5040193;28;20044;-77
2022/11/10 11:35:40;;;;;;;11.32;2.15;;;;;;;12.72;98.29;102383.06;5052568;28;20025;-76
2022/11/10 11:38:09;;;;;;;;;;;;;;;12.93;100.00;102394.22;5052922;28;20046;-79